Time;durP1;ratioP1;P1;durP2;ratioP2;P2;SDS_P1;SDS_P2;PMS_P1;PMS_P2;Temp;Humidity;BMP_temperature;BMP_pressure;BME280_temperature;BME280_humidity;BME280_pressure;Samples;Min_cycle;Max_cycle;Signal;HPM_P1;HPM_P2
2021/09/07 00:01:09;;;;;;;10.65;3.22;;;;;;;;;;4784480;29;52242;-59
2021/09/07 00:03:35;;;;;;;6.63;2.92;;;;;;;;;;4799510;29;52412;-59
2021/09/07 00:06:01;;;;;;;7.30;2.97;;;;;;;;;;4787731;29;52083;-61
2021/09/07 00:08:27;;;;;;;6.13;3.58;;;;;;;;;;4781169;29;53146;-59
2021/09/07 00:10:53;;;;;;;6.95;2.92;;;;;;;;;;4781754;29;52278;-59
2021/09/07 00:13:19;;;;;;;8.60;3.30;;;;;;;;;;4781026;29;53220;-59
2021/09/07 00:15:46;;;;;;;6.28;3.22;;;;;;;;;;4798882;29;52176;-59
2021/09/07 00:18:12;;;;;;;8.93;3.30;;;;;;;;;;4799144;29;52210;-59
2021/09/07 00:20:38;;;;;;;7.78;2.97;;;;;;;;;;4813043;29;53626;-59
2021/09/07 00:23:04;;;;;;;4.32;3.28;;;;;;;;;;4798857;29;52340;-58
2021/09/07 00:25:30;;;;;;;7.95;3.55;;;;;;;;;;4795574;29;52208;-60
2021/09/07 00:27:56;;;;;;;10.80;3.60;;;;;;;;;;4799569;29;52502;-59
2021/09/07 00:30:22;;;;;;;7.13;3.15;;;;;;;;;;4799667;29;52579;-59
2021/09/07 00:32:48;;;;;;;7.47;3.47;;;;;;;;;;4794470;29;52383;-60
2021/09/07 00:35:14;;;;;;;5.82;3.38;;;;;;;;;;4799155;29;52361;-59
2021/09/07 00:37:41;;;;;;;7.65;3.58;;;;;;;;;;4798811;29;52226;-59
2021/09/07 00:40:08;;;;;;;5.55;3.15;;;;;;;;;;4799183;29;52211;-59
2021/09/07 00:42:36;;;;;;;5.70;3.03;;;;;;;;;;4796615;29;52479;-61
2021/09/07 00:45:04;;;;;;;10.40;3.15;;;;;;;;;;4799708;29;52242;-61
2021/09/07 00:47:31;;;;;;;5.38;2.85;;;;;;;;;;4799206;29;52379;-60
2021/09/07 00:49:57;;;;;;;7.15;3.28;;;;;;;;;;4799683;29;52292;-60
2021/09/07 00:52:24;;;;;;;11.25;3.53;;;;;;;;;;4796883;29;52816;-59
2021/09/07 00:54:50;;;;;;;4.63;3.10;;;;;;;;;;4796308;29;52442;-60
2021/09/07 00:57:16;;;;;;;13.88;3.47;;;;;;;;;;4798327;29;52258;-60
2021/09/07 00:59:42;;;;;;;9.05;3.30;;;;;;;;;;4797402;29;52314;-60
2021/09/07 01:02:08;;;;;;;6.15;3.15;;;;;;;;;;4797863;29;52272;-59
2021/09/07 01:04:34;;;;;;;4.57;2.58;;;;;;;;;;4799133;29;52501;-60
2021/09/07 01:07:02;;;;;;;4.95;2.70;;;;;;;;;;4798753;29;52469;-60
2021/09/07 01:09:28;;;;;;;6.40;2.63;;;;;;;;;;4797057;29;52305;-60
2021/09/07 01:11:54;;;;;;;5.63;2.60;;;;;;;;;;4799472;29;52424;-59
2021/09/07 01:14:31;;;;;;;5.20;2.85;;;;;;;;;;4798012;29;53944;-60
2021/09/07 01:16:57;;;;;;;5.60;2.30;;;;;;;;;;4798780;29;52009;-62
2021/09/07 01:19:25;;;;;;;4.72;2.10;;;;;;;;;;4801686;29;52332;-61
2021/09/07 01:21:51;;;;;;;5.90;2.40;;;;;;;;;;4799868;29;52420;-59
2021/09/07 01:24:22;;;;;;;2.63;1.80;;;;;;;;;;4776831;29;53423;-60
2021/09/07 01:26:49;;;;;;;6.40;2.13;;;;;;;;;;4798598;29;52434;-59
2021/09/07 01:29:15;;;;;;;1.98;1.60;;;;;;;;;;4798711;29;52354;-60
2021/09/07 01:31:41;;;;;;;3.15;2.03;;;;;;;;;;4798635;29;52268;-59
2021/09/07 01:34:07;;;;;;;3.88;1.67;;;;;;;;;;4794514;29;52629;-61
2021/09/07 01:36:33;;;;;;;3.28;1.85;;;;;;;;;;4798888;29;52341;-59
2021/09/07 01:38:59;;;;;;;2.75;1.65;;;;;;;;;;4798386;29;52667;-62
2021/09/07 01:41:25;;;;;;;7.45;1.88;;;;;;;;;;4793743;29;52076;-59
2021/09/07 01:43:51;;;;;;;5.88;1.73;;;;;;;;;;4798102;29;52257;-60
2021/09/07 01:46:17;;;;;;;2.85;1.67;;;;;;;;;;4798223;29;52250;-59
2021/09/07 01:48:44;;;;;;;4.50;1.70;;;;;;;;;;4798192;29;52424;-61
2021/09/07 01:51:10;;;;;;;2.45;1.70;;;;;;;;;;4798027;29;52344;-59
2021/09/07 01:53:36;;;;;;;3.95;1.80;;;;;;;;;;4798239;29;52204;-59
2021/09/07 01:56:02;;;;;;;6.20;1.83;;;;;;;;;;4796040;29;52244;-59
2021/09/07 01:58:28;;;;;;;3.08;1.65;;;;;;;;;;4796751;29;54328;-59
2021/09/07 02:00:54;;;;;;;2.28;1.55;;;;;;;;;;4798860;29;52907;-59
2021/09/07 02:03:20;;;;;;;6.75;1.80;;;;;;;;;;4797404;29;52328;-59
2021/09/07 02:05:46;;;;;;;3.65;1.77;;;;;;;;;;4788605;29;52623;-60
2021/09/07 02:08:12;;;;;;;6.13;1.60;;;;;;;;;;4779866;29;52122;-60
2021/09/07 02:10:38;;;;;;;3.70;1.30;;;;;;;;;;4788409;29;52168;-59
2021/09/07 02:13:04;;;;;;;3.03;1.65;;;;;;;;;;4798048;29;52266;-59
2021/09/07 02:15:30;;;;;;;3.88;1.73;;;;;;;;;;4801481;29;52417;-59
2021/09/07 02:17:56;;;;;;;4.03;1.55;;;;;;;;;;4795355;29;52411;-61
2021/09/07 02:20:22;;;;;;;5.18;1.65;;;;;;;;;;4796013;29;54020;-61
2021/09/07 02:22:48;;;;;;;6.95;1.50;;;;;;;;;;4797869;29;52623;-61
2021/09/07 02:25:14;;;;;;;3.60;1.45;;;;;;;;;;4798097;29;52249;-59
2021/09/07 02:27:40;;;;;;;3.17;1.50;;;;;;;;;;4797304;29;52458;-62
2021/09/07 02:30:07;;;;;;;5.13;1.50;;;;;;;;;;4797229;29;52136;-59
2021/09/07 02:32:33;;;;;;;2.92;1.55;;;;;;;;;;4797987;29;52225;-59
2021/09/07 02:34:59;;;;;;;1.92;1.58;;;;;;;;;;4798554;29;52276;-61
2021/09/07 02:37:25;;;;;;;3.53;1.65;;;;;;;;;;4800641;29;52649;-59
2021/09/07 02:39:51;;;;;;;4.40;1.65;;;;;;;;;;4800988;29;51941;-59
2021/09/07 02:42:17;;;;;;;5.78;1.70;;;;;;;;;;4795911;29;53832;-59
2021/09/07 02:44:43;;;;;;;5.40;1.27;;;;;;;;;;4799787;29;52316;-59
2021/09/07 02:47:09;;;;;;;2.75;1.60;;;;;;;;;;4800754;29;53519;-61
2021/09/07 02:49:35;;;;;;;3.60;1.70;;;;;;;;;;4799957;29;53413;-59
2021/09/07 02:52:01;;;;;;;2.72;1.75;;;;;;;;;;4789685;29;53921;-59
2021/09/07 02:54:27;;;;;;;4.90;1.52;;;;;;;;;;4814133;29;52277;-59
2021/09/07 02:56:53;;;;;;;4.00;1.70;;;;;;;;;;4818364;29;52400;-59
2021/09/07 02:59:19;;;;;;;9.93;1.60;;;;;;;;;;4819349;29;52346;-58
2021/09/07 03:01:45;;;;;;;11.82;1.60;;;;;;;;;;4817969;29;52424;-58
2021/09/07 03:04:11;;;;;;;5.90;1.90;;;;;;;;;;4818030;29;53824;-59
2021/09/07 03:06:37;;;;;;;3.08;1.50;;;;;;;;;;4818759;29;52238;-61
2021/09/07 03:09:03;;;;;;;4.35;1.67;;;;;;;;;;4818328;29;52234;-60
2021/09/07 03:11:29;;;;;;;10.48;2.00;;;;;;;;;;4817696;29;52366;-60
2021/09/07 03:13:55;;;;;;;7.13;1.77;;;;;;;;;;4817434;29;53010;-59
2021/09/07 03:16:21;;;;;;;4.75;1.60;;;;;;;;;;4818733;29;52368;-59
2021/09/07 03:18:47;;;;;;;8.18;1.55;;;;;;;;;;4817747;29;52354;-60
2021/09/07 03:21:14;;;;;;;4.40;1.45;;;;;;;;;;4818251;29;52026;-59
2021/09/07 03:23:40;;;;;;;5.50;1.60;;;;;;;;;;4818352;29;52240;-59
2021/09/07 03:26:07;;;;;;;7.20;1.33;;;;;;;;;;4823754;29;53330;-60
2021/09/07 03:28:32;;;;;;;5.65;1.42;;;;;;;;;;4826014;29;52245;-59
2021/09/07 03:30:58;;;;;;;8.30;1.70;;;;;;;;;;4818207;29;52339;-62
2021/09/07 03:33:24;;;;;;;7.63;1.83;;;;;;;;;;4818451;29;52125;-61
2021/09/07 03:35:50;;;;;;;11.48;1.58;;;;;;;;;;4815980;29;53165;-62
2021/09/07 03:38:16;;;;;;;6.43;1.77;;;;;;;;;;4817752;29;52183;-59
2021/09/07 03:40:43;;;;;;;6.07;1.30;;;;;;;;;;4808003;29;53463;-60
2021/09/07 03:43:09;;;;;;;6.97;1.30;;;;;;;;;;4817914;29;52373;-59
2021/09/07 03:45:35;;;;;;;8.45;1.40;;;;;;;;;;4810259;29;52277;-57
2021/09/07 03:48:01;;;;;;;3.88;1.35;;;;;;;;;;4817398;29;52824;-59
2021/09/07 03:50:27;;;;;;;11.50;1.65;;;;;;;;;;4815864;29;52386;-59
2021/09/07 03:52:53;;;;;;;8.18;1.60;;;;;;;;;;4811159;29;52351;-61
2021/09/07 03:55:19;;;;;;;4.07;1.40;;;;;;;;;;4805366;29;53031;-59
2021/09/07 03:57:45;;;;;;;10.27;1.20;;;;;;;;;;4801737;29;52951;-59
2021/09/07 04:00:12;;;;;;;5.25;1.17;;;;;;;;;;4807775;29;52686;-58
2021/09/07 04:02:38;;;;;;;7.35;1.20;;;;;;;;;;4801912;29;52507;-60
2021/09/07 04:05:06;;;;;;;11.52;1.52;;;;;;;;;;4803957;29;52985;-59
2021/09/07 04:07:32;;;;;;;10.68;1.50;;;;;;;;;;4795733;29;52641;-58
2021/09/07 04:09:58;;;;;;;5.47;1.67;;;;;;;;;;4803522;29;53882;-59
2021/09/07 04:12:24;;;;;;;7.10;1.67;;;;;;;;;;4783332;29;52692;-60
2021/09/07 04:14:50;;;;;;;5.22;1.45;;;;;;;;;;4799875;29;52391;-59
2021/09/07 04:17:16;;;;;;;10.45;1.98;;;;;;;;;;4801545;29;52116;-59
2021/09/07 04:19:42;;;;;;;11.70;2.00;;;;;;;;;;4791574;29;53833;-59
2021/09/07 04:22:08;;;;;;;8.70;2.05;;;;;;;;;;4808053;29;52419;-58
2021/09/07 04:24:34;;;;;;;18.60;2.35;;;;;;;;;;4803408;29;52477;-60
2021/09/07 04:27:00;;;;;;;7.82;2.60;;;;;;;;;;4789673;29;52406;-62
2021/09/07 04:29:26;;;;;;;8.13;2.50;;;;;;;;;;4797200;29;52306;-61
2021/09/07 04:31:52;;;;;;;5.80;1.83;;;;;;;;;;4810927;29;53269;-64
2021/09/07 04:34:18;;;;;;;12.57;2.15;;;;;;;;;;4800729;29;53926;-59
2021/09/07 04:36:44;;;;;;;4.70;1.92;;;;;;;;;;4771240;29;53642;-59
2021/09/07 04:39:10;;;;;;;7.43;1.75;;;;;;;;;;4778276;29;54085;-60
2021/09/07 04:41:36;;;;;;;8.55;1.60;;;;;;;;;;4791917;29;53875;-58
2021/09/07 04:44:02;;;;;;;7.80;1.67;;;;;;;;;;4789058;29;54242;-61
2021/09/07 04:46:29;;;;;;;6.30;2.33;;;;;;;;;;4787727;29;53153;-60
2021/09/07 04:48:55;;;;;;;6.28;1.58;;;;;;;;;;4803061;29;52339;-61
2021/09/07 04:51:22;;;;;;;7.85;1.98;;;;;;;;;;4800241;29;52144;-59
2021/09/07 04:53:48;;;;;;;7.55;1.63;;;;;;;;;;4797397;29;52560;-60
2021/09/07 04:56:14;;;;;;;4.43;1.40;;;;;;;;;;4804460;29;53612;-59
2021/09/07 04:58:40;;;;;;;3.63;1.80;;;;;;;;;;4798495;29;52294;-59
2021/09/07 05:01:06;;;;;;;5.65;1.33;;;;;;;;;;4788756;29;54019;-59
2021/09/07 05:03:32;;;;;;;5.75;1.95;;;;;;;;;;4775745;29;55506;-59
2021/09/07 05:05:58;;;;;;;3.50;1.20;;;;;;;;;;4802991;29;52424;-61
2021/09/07 05:08:24;;;;;;;4.45;1.70;;;;;;;;;;4781879;29;54063;-61
2021/09/07 05:10:50;;;;;;;5.43;1.70;;;;;;;;;;4811708;29;52184;-60
2021/09/07 05:13:16;;;;;;;4.63;1.60;;;;;;;;;;4791296;29;53237;-60
2021/09/07 05:15:42;;;;;;;5.75;1.80;;;;;;;;;;4785901;29;53978;-60
2021/09/07 05:18:08;;;;;;;7.43;1.80;;;;;;;;;;4807160;29;52394;-62
2021/09/07 05:20:34;;;;;;;7.75;1.75;;;;;;;;;;4781514;29;54196;-61
2021/09/07 05:23:00;;;;;;;12.93;1.60;;;;;;;;;;4820499;29;52373;-58
2021/09/07 05:25:28;;;;;;;11.23;1.63;;;;;;;;;;4796169;29;52955;-59
2021/09/07 05:27:54;;;;;;;8.52;1.50;;;;;;;;;;4787795;29;54136;-60
2021/09/07 05:30:20;;;;;;;9.02;1.50;;;;;;;;;;4797088;29;54088;-60
2021/09/07 05:32:47;;;;;;;6.00;1.58;;;;;;;;;;4808680;29;53120;-60
2021/09/07 05:35:13;;;;;;;8.88;1.63;;;;;;;;;;4785143;29;53571;-58
2021/09/07 05:37:40;;;;;;;6.43;1.30;;;;;;;;;;4798878;29;54398;-59
2021/09/07 05:40:11;;;;;;;4.13;1.40;;;;;;;;;;4796954;29;53928;-62
2021/09/07 05:42:41;;;;;;;6.22;1.50;;;;;;;;;;4809492;29;52343;-60
2021/09/07 05:45:12;;;;;;;2.97;1.23;;;;;;;;;;4804759;29;52384;-59
2021/09/07 05:47:38;;;;;;;7.03;1.55;;;;;;;;;;4800384;29;53919;-59
2021/09/07 05:50:05;;;;;;;6.07;1.25;;;;;;;;;;4816687;29;52322;-59
2021/09/07 05:52:31;;;;;;;6.97;1.23;;;;;;;;;;4799975;29;52437;-59
2021/09/07 05:54:57;;;;;;;7.75;1.20;;;;;;;;;;4795990;29;53459;-59
2021/09/07 05:57:23;;;;;;;4.10;1.10;;;;;;;;;;4801674;29;52946;-58
2021/09/07 05:59:49;;;;;;;2.70;1.00;;;;;;;;;;4797722;29;52942;-59
2021/09/07 06:02:15;;;;;;;9.05;1.33;;;;;;;;;;4772732;29;52312;-59
2021/09/07 06:04:41;;;;;;;5.63;1.15;;;;;;;;;;4804825;29;52225;-62
2021/09/07 06:07:07;;;;;;;2.83;1.25;;;;;;;;;;4802184;29;52362;-59
2021/09/07 06:09:33;;;;;;;4.13;1.10;;;;;;;;;;4793432;29;52677;-58
2021/09/07 06:11:59;;;;;;;1.70;1.10;;;;;;;;;;4808861;29;52429;-58
2021/09/07 06:14:25;;;;;;;2.95;1.45;;;;;;;;;;4805237;29;53074;-57
2021/09/07 06:16:51;;;;;;;8.65;1.63;;;;;;;;;;4818910;29;52847;-59
2021/09/07 06:19:17;;;;;;;6.53;1.20;;;;;;;;;;4806021;29;53877;-58
2021/09/07 06:21:43;;;;;;;7.68;1.23;;;;;;;;;;4771988;29;52938;-59
2021/09/07 06:24:09;;;;;;;4.57;1.33;;;;;;;;;;4800513;29;52305;-58
2021/09/07 06:26:35;;;;;;;3.65;1.30;;;;;;;;;;4787511;29;52132;-59
2021/09/07 06:29:01;;;;;;;1.70;1.10;;;;;;;;;;4795200;29;52281;-58
2021/09/07 06:31:27;;;;;;;3.40;1.23;;;;;;;;;;4796193;29;54028;-60
2021/09/07 06:33:53;;;;;;;3.17;1.20;;;;;;;;;;4760462;29;53985;-58
2021/09/07 06:36:19;;;;;;;3.45;1.10;;;;;;;;;;4758254;29;53570;-58
2021/09/07 06:38:45;;;;;;;3.67;0.85;;;;;;;;;;4802743;29;52322;-58
2021/09/07 06:41:11;;;;;;;5.00;0.95;;;;;;;;;;4748291;29;52201;-60
2021/09/07 06:43:37;;;;;;;3.78;1.60;;;;;;;;;;4786903;29;55227;-61
2021/09/07 06:46:03;;;;;;;3.92;1.30;;;;;;;;;;4798384;29;53827;-58
2021/09/07 06:48:29;;;;;;;2.25;1.10;;;;;;;;;;4818737;29;52195;-58
2021/09/07 06:50:55;;;;;;;2.00;1.08;;;;;;;;;;4818417;29;52276;-58
2021/09/07 06:53:21;;;;;;;1.65;0.90;;;;;;;;;;4804426;29;53949;-58
2021/09/07 06:55:47;;;;;;;2.42;1.25;;;;;;;;;;4818343;29;52730;-61
2021/09/07 06:58:13;;;;;;;1.92;1.00;;;;;;;;;;4812462;29;52122;-60
2021/09/07 07:00:39;;;;;;;6.47;0.90;;;;;;;;;;4810016;29;52326;-60
2021/09/07 07:03:05;;;;;;;3.10;0.93;;;;;;;;;;4817960;29;52385;-58
2021/09/07 07:05:31;;;;;;;6.82;1.15;;;;;;;;;;4812787;29;52551;-58
2021/09/07 07:07:57;;;;;;;3.47;1.02;;;;;;;;;;4810109;29;52099;-58
2021/09/07 07:10:23;;;;;;;6.95;1.02;;;;;;;;;;4806820;29;52470;-58
2021/09/07 07:12:49;;;;;;;3.28;1.10;;;;;;;;;;4807110;29;52028;-57
2021/09/07 07:15:15;;;;;;;3.08;1.02;;;;;;;;;;4791476;29;53948;-60
2021/09/07 07:17:41;;;;;;;17.67;1.67;;;;;;;;;;4792591;29;54295;-59
2021/09/07 07:20:08;;;;;;;13.48;1.10;;;;;;;;;;4788232;29;52364;-58
2021/09/07 07:22:34;;;;;;;15.07;6.25;;;;;;;;;;4772867;29;53848;-59
2021/09/07 07:25:00;;;;;;;23.92;10.43;;;;;;;;;;4789957;29;52390;-58
2021/09/07 07:27:26;;;;;;;15.02;6.20;;;;;;;;;;4805429;29;52867;-58
2021/09/07 07:29:52;;;;;;;20.15;5.07;;;;;;;;;;4793550;29;53914;-59
2021/09/07 07:32:18;;;;;;;100.00;28.60;;;;;;;;;;4785300;29;53872;-57
2021/09/07 07:34:44;;;;;;;90.45;30.88;;;;;;;;;;4784404;29;53854;-59
2021/09/07 07:37:10;;;;;;;44.35;15.95;;;;;;;;;;4778963;29;53422;-59
2021/09/07 07:39:36;;;;;;;58.20;20.60;;;;;;;;;;4799436;29;52810;-60
2021/09/07 07:42:02;;;;;;;116.68;35.85;;;;;;;;;;4799495;29;52257;-59
2021/09/07 07:44:28;;;;;;;72.97;24.02;;;;;;;;;;4800445;29;52050;-58
2021/09/07 07:46:54;;;;;;;58.00;18.42;;;;;;;;;;4800400;29;52128;-59
2021/09/07 07:49:20;;;;;;;86.45;35.00;;;;;;;;;;4799692;29;54096;-60
2021/09/07 07:51:46;;;;;;;112.75;38.55;;;;;;;;;;4794137;29;52460;-60
2021/09/07 07:54:13;;;;;;;76.60;29.33;;;;;;;;;;4799495;29;52234;-59
2021/09/07 07:56:39;;;;;;;180.30;62.58;;;;;;;;;;4800404;29;52004;-60
2021/09/07 07:59:05;;;;;;;265.92;96.68;;;;;;;;;;4783357;29;52990;-61
2021/09/07 08:01:32;;;;;;;242.45;91.70;;;;;;;;;;4781274;29;53347;-59
2021/09/07 08:03:58;;;;;;;149.02;51.63;;;;;;;;;;4786535;29;52344;-61
2021/09/07 08:06:24;;;;;;;118.80;41.95;;;;;;;;;;4741893;29;447164;-59
2021/09/07 08:08:50;;;;;;;145.13;49.67;;;;;;;;;;4805104;29;53883;-59
2021/09/07 08:11:19;;;;;;;118.55;40.25;;;;;;;;;;4784000;29;52879;-60
2021/09/07 08:13:45;;;;;;;87.72;31.55;;;;;;;;;;4775574;29;53859;-59
2021/09/07 08:16:11;;;;;;;81.47;29.60;;;;;;;;;;4785153;29;52605;-59
2021/09/07 08:18:37;;;;;;;80.65;28.73;;;;;;;;;;4769087;29;52373;-60
2021/09/07 08:21:03;;;;;;;71.82;25.35;;;;;;;;;;4792495;29;54373;-58
2021/09/07 08:23:29;;;;;;;63.53;24.23;;;;;;;;;;4782232;29;52203;-59
2021/09/07 08:25:55;;;;;;;218.95;76.85;;;;;;;;;;4788482;29;52218;-61
2021/09/07 08:28:21;;;;;;;411.05;154.73;;;;;;;;;;4785826;29;53900;-60
2021/09/07 08:30:47;;;;;;;239.57;82.18;;;;;;;;;;4779759;29;52431;-59
2021/09/07 08:33:17;;;;;;;171.65;56.70;;;;;;;;;;4782268;29;52845;-60
2021/09/07 08:35:43;;;;;;;177.73;60.40;;;;;;;;;;4801501;29;52467;-59
2021/09/07 08:38:10;;;;;;;191.73;67.32;;;;;;;;;;4766290;29;53439;-61
2021/09/07 08:40:36;;;;;;;160.82;51.33;;;;;;;;;;4790075;29;52860;-61
2021/09/07 08:43:03;;;;;;;141.05;45.92;;;;;;;;;;4783084;29;52972;-59
2021/09/07 08:45:29;;;;;;;122.35;39.20;;;;;;;;;;4795293;29;52898;-59
2021/09/07 08:47:57;;;;;;;158.57;59.47;;;;;;;;;;4773016;29;52464;-59
2021/09/07 08:50:23;;;;;;;276.45;107.32;;;;;;;;;;4759889;29;52185;-60
2021/09/07 08:52:50;;;;;;;233.77;89.72;;;;;;;;;;4783825;29;52518;-60
2021/09/07 08:55:16;;;;;;;336.75;134.55;;;;;;;;;;4789519;29;54032;-59
2021/09/07 08:57:42;;;;;;;259.60;92.50;;;;;;;;;;4774762;29;53291;-58
2021/09/07 09:00:08;;;;;;;182.35;62.85;;;;;;;;;;4767906;29;54436;-61
2021/09/07 09:02:43;;;;;;;160.90;55.60;;;;;;;;;;4791874;29;52319;-59
2021/09/07 09:05:10;;;;;;;150.35;51.72;;;;;;;;;;4766424;29;53922;-60
2021/09/07 09:07:37;;;;;;;280.25;110.97;;;;;;;;;;4789103;29;52264;-59
2021/09/07 09:10:03;;;;;;;278.45;108.63;;;;;;;;;;4764070;29;53522;-59
2021/09/07 09:12:36;;;;;;;183.10;63.10;;;;;;;;;;4795392;29;52532;-59
2021/09/07 09:15:22;;;;;;;356.33;135.68;;;;;;;;;;4780112;29;54025;-59
2021/09/07 09:17:52;;;;;;;333.10;132.50;;;;;;;;;;4794626;29;52985;-58
2021/09/07 09:20:18;;;;;;;229.23;85.97;;;;;;;;;;4787238;29;54236;-58
2021/09/07 09:22:55;;;;;;;320.42;118.28;;;;;;;;;;4797434;29;53400;-59
2021/09/07 09:25:22;;;;;;;227.95;87.32;;;;;;;;;;4793761;29;52462;-58
2021/09/07 09:27:54;;;;;;;468.42;199.90;;;;;;;;;;4782206;29;52764;-57
2021/09/07 09:30:46;;;;;;;286.75;108.50;;;;;;;;;;4823270;29;52217;-57
2021/09/07 09:33:14;;;;;;;;;;;;;;;;;;4786733;29;53915;-60
2021/09/07 09:35:51;;;;;;;189.73;67.95;;;;;;;;;;4797522;29;52238;-58
2021/09/07 09:38:19;;;;;;;189.75;62.47;;;;;;;;;;4797962;29;52259;-59
2021/09/07 09:40:58;;;;;;;199.98;72.47;;;;;;;;;;4779675;29;53054;-58
2021/09/07 09:43:32;;;;;;;245.40;94.60;;;;;;;;;;4772880;29;53689;-59
2021/09/07 09:46:26;;;;;;;186.98;63.63;;;;;;;;;;4792310;29;52185;-58
2021/09/07 09:49:14;;;;;;;162.85;58.58;;;;;;;;;;4811815;29;52243;-58
2021/09/07 09:51:41;;;;;;;191.88;75.63;;;;;;;;;;4793098;29;54143;-58
2021/09/07 09:54:07;;;;;;;181.27;76.55;;;;;;;;;;4797116;29;52247;-57
2021/09/07 09:56:33;;;;;;;170.73;68.57;;;;;;;;;;4773494;29;53969;-58
2021/09/07 09:58:59;;;;;;;167.13;65.28;;;;;;;;;;4762426;29;52125;-57
2021/09/07 10:01:26;;;;;;;393.10;164.32;;;;;;;;;;4790325;29;52370;-60
2021/09/07 10:03:52;;;;;;;602.90;284.42;;;;;;;;;;4789390;29;52709;-56
2021/09/07 10:06:19;;;;;;;243.38;96.63;;;;;;;;;;4794646;29;52113;-60
2021/09/07 10:08:45;;;;;;;392.50;157.32;;;;;;;;;;4784729;29;52887;-58
2021/09/07 10:11:15;;;;;;;243.07;100.78;;;;;;;;;;4775887;29;53307;-57
2021/09/07 10:13:44;;;;;;;372.90;152.55;;;;;;;;;;4797313;29;52774;-58
2021/09/07 10:16:16;;;;;;;265.25;98.90;;;;;;;;;;4777701;29;52229;-60
2021/09/07 10:19:06;;;;;;;218.77;80.88;;;;;;;;;;4783394;29;52833;-58
2021/09/07 10:26:37;;;;;;;196.95;68.97;;;;;;;;;;4795432;29;52733;-59
2021/09/07 10:29:25;;;;;;;178.35;65.05;;;;;;;;;;4781385;29;52292;-58
2021/09/07 10:31:53;;;;;;;161.60;58.80;;;;;;;;;;4766118;29;53989;-56
2021/09/07 10:34:23;;;;;;;168.60;53.67;;;;;;;;;;4782038;29;52586;-57
2021/09/07 10:37:07;;;;;;;147.48;51.67;;;;;;;;;;4795571;29;53700;-57
2021/09/07 10:39:38;;;;;;;134.30;45.17;;;;;;;;;;4780556;29;53509;-56
2021/09/07 10:42:09;;;;;;;231.45;83.68;;;;;;;;;;4797028;29;52230;-58
2021/09/07 10:49:53;;;;;;;118.25;43.97;;;;;;;;;;4240156;33;52255;-50
2021/09/07 10:52:31;;;;;;;123.35;41.60;;;;;;;;;;4887849;28;52311;-54
2021/09/07 10:55:09;;;;;;;116.70;38.45;;;;;;;;;;4853802;28;53463;-55
2021/09/07 10:57:35;;;;;;;109.90;35.90;;;;;;;;;;4887957;28;52458;-53
2021/09/07 11:00:07;;;;;;;107.30;35.05;;;;;;;;;;4887633;28;52187;-54
2021/09/07 11:02:48;;;;;;;98.78;32.92;;;;;;;;;;4880677;28;53365;-55
2021/09/07 11:05:23;;;;;;;106.38;33.25;;;;;;;;;;4888040;28;53338;-52
2021/09/07 11:07:51;;;;;;;83.53;29.10;;;;;;;;;;4894788;28;54148;-52
2021/09/07 11:10:17;;;;;;;61.70;25.27;;;;;;;;;;4894017;28;52442;-57
2021/09/07 11:12:50;;;;;;;69.63;25.25;;;;;;;;;;4886234;28;52357;-53
2021/09/07 11:15:22;;;;;;;59.15;23.10;;;;;;;;;;4896175;28;52230;-57
2021/09/07 11:18:22;;;;;;;65.43;21.95;;;;;;;;;;4885596;28;52743;-55
2021/09/07 11:20:49;;;;;;;66.20;21.85;;;;;;;;;;4880353;28;52341;-56
2021/09/07 11:23:20;;;;;;;60.00;20.23;;;;;;;;;;4866673;28;53881;-55
2021/09/07 11:25:49;;;;;;;50.75;18.98;;;;;;;;;;4892785;28;52281;-54
2021/09/07 11:28:17;;;;;;;50.50;19.02;;;;;;;;;;4904218;28;52257;-56
2021/09/07 11:30:46;;;;;;;52.03;18.48;;;;;;;;;;4901050;28;53475;-55
2021/09/07 11:33:20;;;;;;;46.25;17.65;;;;;;;;;;4896872;28;55411;-58
2021/09/07 11:36:00;;;;;;;45.75;14.95;;;;;;;;;;4897846;28;52803;-56
2021/09/07 11:38:32;;;;;;;41.00;15.45;;;;;;;;;;4879757;28;52278;-58
2021/09/07 11:41:01;;;;;;;41.90;14.00;;;;;;;;;;4850458;28;52843;-57
2021/09/07 11:43:50;;;;;;;34.80;13.50;;;;;;;;;;4843749;28;52399;-55
2021/09/07 11:46:34;;;;;;;33.60;12.90;;;;;;;;;;4845593;29;52414;-55
2021/09/07 11:49:11;;;;;;;34.30;12.07;;;;;;;;;;4847361;29;52329;-53
2021/09/07 11:51:41;;;;;;;30.38;10.85;;;;;;;;;;4847119;29;53867;-52
2021/09/07 11:54:09;;;;;;;27.65;10.77;;;;;;;;;;4830473;29;54371;-54
2021/09/07 11:56:39;;;;;;;27.45;10.68;;;;;;;;;;4829747;29;53225;-57
2021/09/07 11:59:13;;;;;;;20.80;8.68;;;;;;;;;;4836186;29;53208;-56
2021/09/07 12:01:42;;;;;;;29.73;9.65;;;;;;;;;;4823928;29;52894;-57
2021/09/07 12:04:13;;;;;;;24.65;9.43;;;;;;;;;;4808492;29;54406;-56
2021/09/07 12:06:53;;;;;;;30.90;9.95;;;;;;;;;;4827027;29;52370;-58
2021/09/07 12:09:22;;;;;;;18.80;7.57;;;;;;;;;;4828494;29;52504;-56
2021/09/07 12:12:04;;;;;;;23.88;7.82;;;;;;;;;;4810730;29;53435;-56
2021/09/07 12:14:45;;;;;;;19.55;7.20;;;;;;;;;;4827375;29;53903;-55
2021/09/07 12:17:18;;;;;;;26.13;7.65;;;;;;;;;;4829762;29;53527;-58
2021/09/07 12:19:49;;;;;;;19.80;7.30;;;;;;;;;;4826160;29;52481;-56
2021/09/07 12:22:28;;;;;;;15.27;6.10;;;;;;;;;;4822932;29;52122;-56
2021/09/07 12:25:12;;;;;;;12.57;5.30;;;;;;;;;;4824254;29;52484;-55
2021/09/07 12:27:46;;;;;;;15.57;5.45;;;;;;;;;;4827596;29;52800;-55
2021/09/07 12:30:29;;;;;;;14.00;4.88;;;;;;;;;;4826017;29;52398;-56
2021/09/07 12:33:02;;;;;;;11.10;5.07;;;;;;;;;;4823685;29;52286;-58
2021/09/07 12:35:37;;;;;;;13.40;4.90;;;;;;;;;;4820440;29;52269;-55
2021/09/07 12:38:11;;;;;;;9.50;4.55;;;;;;;;;;4805464;29;53342;-57
2021/09/07 12:40:48;;;;;;;11.38;4.45;;;;;;;;;;4806227;29;54284;-56
2021/09/07 12:43:19;;;;;;;15.60;4.03;;;;;;;;;;4818737;29;52731;-57
2021/09/07 12:45:51;;;;;;;12.70;4.20;;;;;;;;;;4818723;29;54029;-57
2021/09/07 12:48:17;;;;;;;9.77;4.15;;;;;;;;;;4802328;29;54187;-56
2021/09/07 12:50:44;;;;;;;7.75;3.75;;;;;;;;;;4808883;29;54540;-53
2021/09/07 12:53:10;;;;;;;11.30;3.60;;;;;;;;;;4823418;29;54035;-55
2021/09/07 12:55:38;;;;;;;6.35;3.17;;;;;;;;;;4797592;29;54418;-58
2021/09/07 12:58:07;;;;;;;9.18;3.15;;;;;;;;;;4821905;29;52529;-59
2021/09/07 13:00:37;;;;;;;7.78;3.22;;;;;;;;;;4831648;29;52362;-56
2021/09/07 13:03:03;;;;;;;6.07;2.70;;;;;;;;;;4822954;29;54077;-56
2021/09/07 13:05:31;;;;;;;7.50;3.28;;;;;;;;;;4828260;29;52386;-56
2021/09/07 13:07:57;;;;;;;8.50;2.70;;;;;;;;;;4832585;29;52309;-55
2021/09/07 13:10:23;;;;;;;5.22;2.45;;;;;;;;;;4830635;29;52879;-53
2021/09/07 13:12:49;;;;;;;8.27;2.55;;;;;;;;;;4813118;29;54244;-57
2021/09/07 13:15:15;;;;;;;6.38;2.58;;;;;;;;;;4825592;29;52509;-56
2021/09/07 13:17:41;;;;;;;6.07;2.63;;;;;;;;;;4825508;29;52413;-57
2021/09/07 13:20:08;;;;;;;3.67;1.77;;;;;;;;;;4805600;29;52433;-58
2021/09/07 13:22:34;;;;;;;5.20;1.90;;;;;;;;;;4834833;29;52381;-54
2021/09/07 13:25:00;;;;;;;12.80;2.38;;;;;;;;;;4820654;29;53942;-57
2021/09/07 13:27:26;;;;;;;7.47;2.15;;;;;;;;;;4774546;29;53032;-56
2021/09/07 13:29:52;;;;;;;6.10;1.95;;;;;;;;;;4795122;29;53248;-59
2021/09/07 13:32:18;;;;;;;4.57;1.92;;;;;;;;;;4791807;29;53614;-60
2021/09/07 13:34:44;;;;;;;7.70;1.85;;;;;;;;;;4797326;29;54095;-57
2021/09/07 13:37:10;;;;;;;6.57;2.05;;;;;;;;;;4780630;29;53530;-55
2021/09/07 13:39:36;;;;;;;4.95;1.67;;;;;;;;;;4798388;29;54077;-58
2021/09/07 13:42:02;;;;;;;1.98;1.30;;;;;;;;;;4797851;29;52343;-59
2021/09/07 13:44:28;;;;;;;2.88;1.20;;;;;;;;;;4798057;29;52355;-58
2021/09/07 13:46:54;;;;;;;3.65;1.50;;;;;;;;;;4785014;29;53665;-58
2021/09/07 13:49:20;;;;;;;2.78;1.55;;;;;;;;;;4796704;29;52769;-58
2021/09/07 13:51:46;;;;;;;2.92;1.85;;;;;;;;;;4812065;29;52181;-57
2021/09/07 13:54:12;;;;;;;5.60;2.00;;;;;;;;;;4815232;29;52549;-59
2021/09/07 13:56:38;;;;;;;3.13;1.45;;;;;;;;;;4768697;29;52216;-59
2021/09/07 13:59:04;;;;;;;6.10;2.00;;;;;;;;;;4777872;29;54146;-58
2021/09/07 14:01:30;;;;;;;6.55;1.80;;;;;;;;;;4796905;29;52232;-58
2021/09/07 14:03:56;;;;;;;2.67;1.60;;;;;;;;;;4780692;29;53834;-58
2021/09/07 14:06:22;;;;;;;3.05;1.63;;;;;;;;;;4798548;29;53013;-58
2021/09/07 14:08:48;;;;;;;5.72;1.73;;;;;;;;;;4794016;29;53845;-57
2021/09/07 14:11:15;;;;;;;3.03;1.50;;;;;;;;;;4794785;29;53464;-57
2021/09/07 14:13:42;;;;;;;3.83;1.70;;;;;;;;;;4781907;29;53271;-52
2021/09/07 14:16:09;;;;;;;6.55;1.95;;;;;;;;;;4791677;29;54083;-57
2021/09/07 14:18:35;;;;;;;3.65;1.67;;;;;;;;;;4797440;29;53826;-57
2021/09/07 14:21:01;;;;;;;3.63;1.50;;;;;;;;;;4774468;29;52804;-58
2021/09/07 14:23:27;;;;;;;2.50;1.23;;;;;;;;;;4790894;29;53443;-57
2021/09/07 14:25:54;;;;;;;3.35;1.55;;;;;;;;;;4744356;29;52220;-59
2021/09/07 14:28:21;;;;;;;5.13;1.63;;;;;;;;;;4826674;29;52010;-57
2021/09/07 14:30:48;;;;;;;2.97;1.90;;;;;;;;;;4775004;29;54041;-56
2021/09/07 14:33:14;;;;;;;5.72;1.50;;;;;;;;;;4817913;23;53481;-57
2021/09/07 14:35:40;;;;;;;4.10;1.60;;;;;;;;;;4801489;29;54189;-55
2021/09/07 14:38:06;;;;;;;5.10;1.42;;;;;;;;;;4801607;29;52849;-57
2021/09/07 14:40:32;;;;;;;9.65;2.00;;;;;;;;;;4789638;29;55963;-58
2021/09/07 14:42:59;;;;;;;5.97;1.80;;;;;;;;;;4801883;29;53791;-59
2021/09/07 14:45:25;;;;;;;8.60;2.20;;;;;;;;;;4810980;29;52353;-58